createdAt,value
2024-04-18T00:00:40.035Z,65.39
2024-04-18T00:03:10.005Z,65.63
2024-04-18T00:05:37.313Z,66.11
2024-04-18T00:08:08.358Z,66.13
2024-04-18T00:10:35.901Z,67.09
2024-04-18T00:13:05.877Z,66.62
2024-04-18T00:15:55.899Z,66.16
2024-04-18T00:18:46.013Z,66.22
2024-04-18T00:21:25.504Z,65.66
2024-04-18T00:23:58.680Z,66.02
2024-04-18T00:26:48.994Z,65.91
2024-04-18T00:29:18.867Z,65.10
2024-04-18T00:31:48.717Z,65.89
2024-04-18T00:34:37.154Z,65.74
2024-04-18T00:37:05.295Z,66.19
2024-04-18T00:39:53.734Z,66.23
2024-04-18T00:42:36.685Z,65.89
2024-04-18T00:45:10.655Z,65.69
2024-04-18T00:47:48.752Z,65.68
2024-04-18T00:50:20.348Z,66.19
2024-04-18T00:52:48.655Z,65.55
2024-04-18T00:55:32.395Z,66.37
2024-04-18T00:58:13.154Z,66.47
2024-04-18T01:00:49.570Z,65.94
2024-04-18T01:03:38.714Z,65.98
2024-04-18T01:06:11.002Z,65.50
2024-04-18T01:08:57.997Z,65.59
2024-04-18T01:11:34.787Z,66.25
2024-04-18T01:14:09.342Z,66.52
2024-04-18T01:16:58.381Z,66.16
2024-04-18T01:19:28.260Z,66.34
2024-04-18T01:22:02.213Z,66.81
2024-04-18T01:24:33.742Z,66.28
2024-04-18T01:27:06.954Z,66.35
2024-04-18T01:29:44.741Z,66.72
2024-04-18T01:32:36.717Z,66.11
2024-04-18T01:35:10.355Z,65.80
2024-04-18T01:37:50.287Z,65.90
2024-04-18T01:40:17.953Z,65.72
2024-04-18T01:43:10.629Z,65.39
2024-04-18T01:45:57.928Z,65.08
2024-04-18T01:48:28.434Z,64.17
2024-04-18T01:51:22.021Z,64.93
2024-04-18T01:53:52.017Z,63.82
2024-04-18T01:56:19.690Z,62.90
2024-04-18T01:58:52.167Z,63.69
2024-04-18T02:01:25.079Z,62.99
2024-04-18T02:03:55.266Z,62.88
2024-04-18T02:06:22.779Z,62.01
2024-04-18T02:08:52.840Z,62.43
2024-04-18T02:11:41.821Z,61.82
2024-04-18T02:14:17.712Z,61.69
2024-04-18T02:16:45.093Z,61.57
2024-04-18T02:19:27.025Z,61.43
2024-04-18T02:22:15.829Z,61.63
2024-04-18T02:25:07.866Z,61.31
2024-04-18T02:27:38.298Z,60.97
2024-04-18T02:30:27.601Z,61.13
2024-04-18T02:33:13.499Z,61.27
2024-04-18T02:35:46.718Z,60.99
2024-04-18T02:38:35.561Z,60.78
2024-04-18T02:41:04.721Z,60.87
2024-04-18T02:43:54.558Z,61.22
2024-04-18T02:46:24.981Z,61.20
2024-04-18T02:49:30.395Z,61.62
2024-04-18T02:51:57.964Z,61.78
2024-04-18T02:54:46.862Z,61.91
2024-04-18T02:57:14.269Z,61.80
2024-04-18T02:59:44.202Z,61.90
2024-04-18T03:02:27.212Z,61.79
2024-04-18T03:05:15.831Z,61.57
2024-04-18T03:07:43.243Z,62.18
2024-04-18T03:10:13.153Z,61.75
2024-04-18T03:12:58.786Z,62.18
2024-04-18T03:15:48.492Z,61.96
2024-04-18T03:18:18.678Z,61.95
2024-04-18T03:20:55.590Z,61.93
2024-04-18T03:23:43.900Z,62.62
2024-04-18T03:26:31.393Z,62.51
2024-04-18T03:29:01.278Z,62.39
2024-04-18T03:31:28.687Z,62.55
2024-04-18T03:34:01.267Z,62.65
2024-04-18T03:36:29.351Z,62.91
2024-04-18T03:39:02.266Z,61.63
2024-04-18T03:41:32.134Z,62.84
2024-04-18T03:44:18.290Z,62.51
2024-04-18T03:46:48.103Z,62.48
2024-04-18T03:49:39.246Z,62.28
2024-04-18T03:52:06.845Z,62.23
2024-04-18T03:54:51.446Z,62.97
2024-04-18T03:57:43.378Z,63.33
2024-04-18T04:00:11.549Z,63.05
2024-04-18T04:02:42.762Z,63.71
2024-04-18T04:05:12.646Z,63.42
2024-04-18T04:07:42.574Z,62.57
2024-04-18T04:10:12.465Z,62.32
2024-04-18T04:12:41.173Z,63.13
2024-04-18T04:15:11.859Z,62.75
2024-04-18T04:17:59.195Z,63.08
2024-04-18T04:20:48.115Z,62.70
2024-04-18T04:23:15.340Z,62.14
2024-04-18T04:25:59.951Z,63.16
2024-04-18T04:28:27.514Z,63.02
2024-04-18T04:30:57.459Z,62.83
2024-04-18T04:33:29.285Z,62.48
2024-04-18T04:36:01.826Z,62.80
2024-04-18T04:38:30.956Z,62.08
2024-04-18T04:41:00.831Z,62.89
2024-04-18T04:43:30.697Z,62.72
2024-04-18T04:45:58.018Z,62.19
2024-04-18T04:48:40.350Z,62.33
2024-04-18T04:51:15.678Z,62.10
2024-04-18T04:53:45.634Z,62.01
2024-04-18T04:56:32.897Z,62.51
2024-04-18T04:59:21.212Z,62.17
2024-04-18T05:01:51.168Z,62.53
2024-04-18T05:04:41.160Z,63.08
2024-04-18T05:07:31.018Z,62.82
2024-04-18T05:10:01.015Z,61.58
2024-04-18T05:12:28.261Z,62.17
2024-04-18T05:14:58.136Z,62.31
2024-04-18T05:17:44.214Z,62.45
2024-04-18T05:20:17.040Z,62.74
2024-04-18T05:22:46.904Z,62.99
2024-04-18T05:25:16.893Z,63.50
2024-04-18T05:27:54.489Z,64.04
2024-04-18T05:33:28.361Z,65.22
2024-04-18T05:35:58.246Z,65.00
2024-04-18T05:38:31.046Z,65.00
2024-04-18T05:41:00.884Z,65.23
2024-04-18T05:43:49.304Z,64.94
2024-04-18T05:46:19.178Z,64.98
2024-04-18T05:48:49.252Z,65.97
2024-04-18T05:51:19.128Z,66.13
2024-04-18T05:54:10.314Z,66.10
2024-04-18T05:57:00.109Z,66.41
2024-04-18T05:59:50.067Z,66.70
2024-04-18T06:02:20.204Z,66.77
2024-04-18T06:04:50.422Z,66.63
2024-04-18T06:07:39.390Z,66.79
2024-04-18T06:10:13.136Z,66.55
2024-04-18T06:12:43.013Z,66.87
2024-04-18T06:15:12.846Z,66.68
2024-04-18T06:17:42.706Z,66.21
2024-04-18T06:20:13.109Z,66.66
2024-04-18T06:22:43.026Z,66.33
2024-04-18T06:25:31.733Z,66.42
2024-04-18T06:28:12.184Z,66.49
2024-04-18T06:30:46.129Z,66.86
2024-04-18T06:33:16.106Z,66.61
2024-04-18T06:35:46.029Z,66.43
2024-04-18T06:38:16.324Z,66.11
2024-04-18T06:40:49.391Z,66.01
2024-04-18T06:43:21.316Z,66.94
2024-04-18T06:45:53.557Z,66.94
2024-04-18T06:48:23.604Z,66.59
2024-04-18T06:50:53.516Z,67.25
2024-04-18T06:53:23.395Z,67.58
2024-04-18T06:55:57.059Z,66.99
2024-04-18T06:58:27.125Z,67.33
2024-04-18T07:00:57.240Z,67.38
2024-04-18T07:03:27.335Z,68.23
2024-04-18T07:05:57.747Z,67.77
2024-04-18T07:08:28.131Z,68.46
2024-04-18T07:11:01.459Z,68.61
2024-04-18T07:13:33.303Z,68.37
2024-04-18T07:16:24.360Z,68.66
2024-04-18T07:18:56.904Z,68.90
2024-04-18T07:21:26.874Z,68.48
2024-04-18T07:24:16.777Z,68.07
2024-04-18T07:26:52.219Z,67.81
2024-04-18T07:29:22.667Z,68.63
2024-04-18T07:31:52.532Z,68.43
2024-04-18T07:34:22.616Z,68.64
2024-04-18T07:36:52.702Z,68.37
2024-04-18T07:39:23.090Z,68.56
2024-04-18T07:41:55.870Z,67.93
2024-04-18T07:44:26.126Z,67.56
2024-04-18T07:46:55.939Z,68.18
2024-04-18T07:49:25.799Z,67.57
2024-04-18T07:51:57.509Z,67.52
2024-04-18T07:54:27.746Z,67.96
2024-04-18T07:57:00.579Z,66.96
2024-04-18T07:59:31.178Z,66.68
2024-04-18T08:02:03.561Z,66.21
2024-04-18T08:04:51.914Z,66.88
2024-04-18T08:07:26.493Z,67.53
2024-04-18T08:10:03.101Z,68.14
2024-04-18T08:12:42.734Z,67.14
2024-04-18T08:15:18.299Z,66.85
2024-04-18T08:17:51.238Z,66.82
2024-04-18T08:20:21.251Z,67.73
2024-04-18T08:22:51.771Z,67.17
2024-04-18T08:25:21.594Z,67.02
2024-04-18T08:27:54.052Z,67.16
2024-04-18T08:30:24.578Z,66.69
2024-04-18T08:32:54.488Z,66.47
2024-04-18T08:35:24.628Z,66.47
2024-04-18T08:37:54.510Z,67.10
2024-04-18T08:40:24.461Z,66.87
2024-04-18T08:42:57.259Z,67.48
2024-04-18T08:45:35.032Z,67.11
2024-04-18T08:48:05.936Z,66.97
2024-04-18T08:50:36.970Z,67.30
2024-04-18T08:53:08.835Z,67.24
2024-04-18T08:55:41.263Z,66.37
2024-04-18T08:58:15.991Z,66.21
2024-04-18T09:00:45.168Z,66.51
2024-04-18T09:03:15.249Z,66.76
2024-04-18T09:05:45.958Z,66.39
2024-04-18T09:08:16.138Z,66.91
2024-04-18T09:10:46.623Z,65.91
2024-04-18T09:13:20.810Z,65.90
2024-04-18T09:15:51.214Z,64.81
2024-04-18T09:18:21.179Z,65.82
2024-04-18T09:20:51.087Z,65.67
2024-04-18T09:23:20.922Z,64.70
2024-04-18T09:25:56.755Z,65.25
2024-04-18T09:28:30.441Z,65.86
2024-04-18T09:31:04.930Z,65.24
2024-04-18T09:33:36.884Z,65.47
2024-04-18T09:36:08.042Z,65.96
2024-04-18T09:38:42.976Z,64.90
2024-04-18T09:41:18.246Z,65.56
2024-04-18T09:44:04.311Z,64.68
2024-04-18T09:46:35.287Z,64.90
2024-04-18T09:49:06.644Z,62.70
2024-04-18T09:51:37.131Z,62.44
2024-04-18T09:54:08.953Z,62.76
2024-04-18T09:56:41.250Z,61.71
2024-04-18T09:59:14.405Z,62.29
2024-04-18T10:01:46.032Z,61.98
2024-04-18T10:04:16.088Z,62.75
2024-04-18T10:06:51.284Z,61.88
2024-04-18T10:09:24.258Z,61.71
2024-04-18T10:11:54.667Z,60.58
2024-04-18T10:14:27.111Z,60.69
2024-04-18T10:16:57.169Z,61.83
2024-04-18T10:19:32.535Z,60.07
2024-04-18T10:22:17.082Z,59.71
2024-04-18T10:24:54.308Z,61.18
2024-04-18T10:27:25.096Z,61.18
2024-04-18T10:30:03.118Z,61.01
2024-04-18T10:32:35.330Z,61.44
2024-04-18T10:35:06.422Z,61.75
2024-04-18T10:37:36.332Z,62.23
2024-04-18T10:40:08.100Z,63.79
2024-04-18T10:42:38.863Z,64.00
2024-04-18T10:45:12.367Z,64.90
2024-04-18T10:47:44.194Z,65.17
2024-04-18T10:50:14.360Z,65.61
2024-04-18T10:52:44.194Z,66.71
2024-04-18T10:55:13.987Z,66.27
2024-04-18T10:57:43.968Z,67.58
2024-04-18T11:00:21.046Z,68.71
2024-04-18T11:02:51.238Z,68.45
2024-04-18T11:05:21.292Z,68.34
2024-04-18T11:07:54.940Z,68.16
2024-04-18T11:10:28.330Z,68.67
2024-04-18T11:13:01.907Z,70.42
2024-04-18T11:15:35.243Z,70.58
2024-04-18T11:18:06.873Z,69.05
2024-04-18T11:20:37.735Z,69.21
2024-04-18T11:23:14.905Z,67.88
2024-04-18T11:25:46.008Z,65.95
2024-04-18T11:28:16.359Z,65.94
2024-04-18T11:30:49.350Z,65.85
2024-04-18T11:33:24.820Z,65.14
2024-04-18T11:35:54.927Z,65.13
2024-04-18T11:38:25.112Z,65.44
2024-04-18T11:40:54.932Z,65.44
2024-04-18T11:43:24.817Z,66.05
2024-04-18T11:45:57.326Z,65.90
2024-04-18T11:48:29.331Z,66.89
2024-04-18T11:50:59.192Z,66.59
2024-04-18T11:53:28.992Z,66.39
2024-04-18T11:56:00.070Z,66.72
2024-04-18T11:58:30.972Z,68.08
2024-04-18T12:01:04.079Z,69.33
2024-04-18T12:03:43.794Z,69.14
2024-04-18T12:06:32.643Z,66.07
2024-04-18T12:09:02.622Z,65.64
2024-04-18T12:11:33.391Z,66.01
2024-04-18T12:14:21.096Z,65.41
2024-04-18T12:17:00.146Z,65.13
2024-04-18T12:19:46.082Z,66.32
2024-04-18T12:22:34.773Z,65.53
2024-04-18T12:25:19.006Z,65.27
2024-04-18T12:27:49.374Z,65.36
2024-04-18T12:30:35.290Z,65.60
2024-04-18T12:33:26.276Z,65.02
2024-04-18T12:35:56.290Z,66.04
2024-04-18T12:38:26.278Z,65.56
2024-04-18T12:41:05.600Z,64.45
2024-04-18T12:43:36.606Z,63.98
2024-04-18T12:46:26.818Z,62.61
2024-04-18T12:49:00.362Z,62.45
2024-04-18T12:51:55.674Z,63.61
2024-04-18T12:54:25.608Z,62.75
2024-04-18T12:56:55.611Z,60.57
2024-04-18T12:59:23.277Z,60.29
2024-04-18T13:01:53.248Z,60.88
2024-04-18T13:04:25.808Z,61.53
2024-04-18T13:06:55.783Z,61.50
2024-04-18T13:09:31.522Z,61.34
2024-04-18T13:12:05.561Z,61.52
2024-04-18T13:14:54.246Z,62.08
2024-04-18T13:17:24.312Z,60.99
2024-04-18T13:19:56.884Z,60.16
2024-04-18T13:22:26.670Z,59.90
2024-04-18T13:24:56.570Z,59.88
2024-04-18T13:27:28.294Z,59.86
2024-04-18T13:29:58.428Z,60.10
2024-04-18T13:32:35.380Z,62.07
2024-04-18T13:35:09.575Z,62.90
2024-04-18T13:37:39.739Z,63.49
2024-04-18T13:40:22.028Z,63.50
2024-04-18T13:42:56.976Z,63.39
2024-04-18T13:45:35.559Z,62.67
2024-04-18T13:48:06.397Z,61.57
2024-04-18T13:50:49.097Z,61.38
2024-04-18T13:53:19.005Z,62.87
2024-04-18T13:55:50.736Z,61.10
2024-04-18T13:58:23.997Z,60.06
2024-04-18T14:01:02.975Z,60.93
2024-04-18T14:03:34.217Z,60.57
2024-04-18T14:06:11.551Z,61.87
2024-04-18T14:08:42.058Z,60.81
2024-04-18T14:11:32.325Z,60.50
2024-04-18T14:14:09.939Z,61.16
2024-04-18T14:16:57.119Z,57.40
2024-04-18T14:19:36.246Z,58.44
2024-04-18T14:22:11.687Z,58.57
2024-04-18T14:24:41.075Z,58.58
2024-04-18T14:27:19.998Z,58.59
2024-04-18T14:30:02.249Z,59.25
2024-04-18T14:32:37.994Z,58.26
2024-04-18T14:35:09.223Z,57.53
2024-04-18T14:37:41.712Z,57.72
2024-04-18T14:40:13.595Z,57.07
2024-04-18T14:42:43.772Z,59.21
2024-04-18T14:45:16.130Z,59.54
2024-04-18T14:47:47.468Z,60.62
2024-04-18T14:50:17.525Z,60.59
2024-04-18T14:52:51.632Z,62.56
2024-04-18T14:55:33.539Z,63.01
2024-04-18T14:58:18.474Z,63.20
2024-04-18T15:00:52.332Z,63.11
2024-04-18T15:03:23.191Z,64.34
2024-04-18T15:05:56.562Z,65.00
2024-04-18T15:08:45.984Z,65.67
2024-04-18T15:11:25.771Z,66.04
2024-04-18T15:14:07.692Z,65.41
2024-04-18T15:16:38.074Z,65.78
2024-04-18T15:19:09.333Z,65.96
2024-04-18T15:21:57.698Z,65.84
2024-04-18T15:24:30.277Z,65.82
2024-04-18T15:27:06.148Z,65.49
2024-04-18T15:29:41.767Z,64.72
2024-04-18T15:32:25.061Z,64.70
2024-04-18T15:35:14.469Z,64.81
2024-04-18T15:38:03.411Z,64.84
2024-04-18T15:40:36.356Z,65.74
2024-04-18T15:43:06.802Z,65.78
2024-04-18T15:45:42.716Z,65.29
2024-04-18T15:48:24.657Z,65.86
2024-04-18T15:50:58.028Z,64.62
2024-04-18T15:53:32.102Z,64.93
2024-04-18T15:56:15.760Z,64.32
2024-04-18T15:59:02.770Z,63.06
2024-04-18T16:01:50.772Z,63.37
2024-04-18T16:04:39.599Z,62.24
2024-04-18T16:07:09.426Z,64.18
2024-04-18T16:09:54.318Z,63.85
2024-04-18T16:12:27.034Z,63.92
2024-04-18T16:15:03.479Z,63.51
2024-04-18T16:17:33.606Z,62.89
2024-04-18T16:20:14.408Z,64.11
2024-04-18T16:22:44.608Z,64.65
2024-04-18T16:25:31.290Z,64.08
2024-04-18T16:28:04.802Z,63.79
2024-04-18T16:30:34.700Z,63.18
2024-04-18T16:33:04.998Z,63.14
2024-04-18T16:35:35.047Z,62.43
2024-04-18T16:38:16.739Z,62.53
2024-04-18T16:40:56.032Z,62.64
2024-04-18T16:43:38.808Z,61.88
2024-04-18T16:46:09.198Z,61.59
2024-04-18T16:48:40.212Z,61.84
2024-04-18T16:51:10.833Z,61.80
2024-04-18T16:53:56.523Z,62.98
2024-04-18T16:56:26.492Z,62.09
2024-04-18T16:58:58.932Z,62.44
2024-04-18T17:01:28.849Z,61.92
2024-04-18T17:03:59.414Z,61.74
2024-04-18T17:06:45.400Z,61.55
2024-04-18T17:09:18.651Z,61.15
2024-04-18T17:11:48.785Z,62.12
2024-04-18T17:14:39.750Z,61.84
2024-04-18T17:17:09.594Z,62.07
2024-04-18T17:19:57.977Z,61.48
2024-04-18T17:22:27.950Z,61.61
2024-04-18T17:24:57.784Z,61.37
2024-04-18T17:27:27.792Z,60.06
2024-04-18T17:30:00.307Z,59.87
2024-04-18T17:32:30.356Z,59.76
2024-04-18T17:35:00.180Z,59.65
2024-04-18T17:37:45.791Z,60.14
2024-04-18T17:40:24.679Z,60.84
2024-04-18T17:43:03.455Z,61.60
2024-04-18T17:45:37.417Z,61.62
2024-04-18T17:48:16.587Z,61.77
2024-04-18T17:50:46.724Z,63.14
2024-04-18T17:53:16.786Z,62.84
2024-04-18T17:55:46.790Z,62.21
2024-04-18T17:58:17.528Z,62.11
2024-04-18T18:00:50.216Z,62.37
2024-04-18T18:03:22.868Z,63.13
2024-04-18T18:05:52.868Z,63.42
2024-04-18T18:08:31.494Z,62.82
2024-04-18T18:11:21.426Z,63.17
2024-04-18T18:13:53.949Z,63.20
2024-04-18T18:16:26.595Z,63.18
2024-04-18T18:18:56.738Z,62.80
2024-04-18T18:21:51.320Z,62.46
2024-04-18T18:24:21.226Z,63.17
2024-04-18T18:26:48.505Z,63.22
2024-04-18T18:29:18.610Z,62.76
2024-04-18T18:32:13.787Z,63.45
2024-04-18T18:34:46.662Z,63.40
2024-04-18T18:37:14.689Z,63.15
2024-04-18T18:39:45.210Z,62.73
2024-04-18T18:42:14.193Z,62.70
2024-04-18T18:44:44.080Z,62.77
2024-04-18T18:47:14.018Z,62.88
2024-04-18T18:49:53.006Z,63.22
2024-04-18T18:52:22.084Z,62.76
2024-04-18T18:54:52.119Z,63.98
2024-04-18T18:57:19.517Z,63.79
2024-04-18T18:59:49.452Z,63.30
2024-04-18T19:02:19.582Z,63.27
2024-04-18T19:05:04.800Z,63.61
2024-04-18T19:07:32.303Z,63.71
2024-04-18T19:10:03.225Z,63.84
2024-04-18T19:12:30.598Z,63.28
2024-04-18T19:15:01.621Z,63.98
2024-04-18T19:17:32.144Z,64.71
2024-04-18T19:20:02.322Z,63.55
2024-04-18T19:22:29.600Z,64.34
2024-04-18T19:24:59.735Z,64.35
2024-04-18T19:27:29.845Z,64.18
2024-04-18T19:29:58.765Z,64.08
2024-04-18T19:32:35.842Z,63.58
2024-04-18T19:35:23.200Z,64.28
2024-04-18T19:37:53.457Z,63.86
2024-04-18T19:40:40.911Z,63.87
2024-04-18T19:43:10.884Z,63.97
2024-04-18T19:45:38.551Z,63.72
2024-04-18T19:48:12.068Z,64.42
2024-04-18T19:50:40.484Z,63.77
2024-04-18T19:53:28.571Z,63.82
2024-04-18T19:55:58.396Z,62.82
2024-04-18T19:58:28.384Z,62.94
2024-04-18T20:00:55.725Z,62.46
2024-04-18T20:03:28.566Z,61.21
2024-04-18T20:05:56.877Z,60.88
2024-04-18T20:08:27.067Z,60.80
2024-04-18T20:10:55.108Z,61.05
2024-04-18T20:13:24.916Z,60.57
2024-04-18T20:15:52.501Z,60.54
2024-04-18T20:18:22.581Z,60.31
2024-04-18T20:20:52.738Z,60.38
2024-04-18T20:23:31.779Z,60.10
2024-04-18T20:25:59.269Z,59.87
2024-04-18T20:28:29.218Z,59.76
2024-04-18T20:30:56.588Z,60.22
2024-04-18T20:33:26.541Z,59.92
2024-04-18T20:35:56.432Z,60.72
2024-04-18T20:38:26.365Z,60.90
2024-04-18T20:40:53.874Z,60.30
2024-04-18T20:43:23.766Z,60.26
2024-04-18T20:45:55.201Z,60.25
2024-04-18T20:48:25.269Z,59.87
2024-04-18T20:50:55.174Z,60.73
2024-04-18T20:53:25.039Z,60.11
2024-04-18T20:55:52.233Z,60.49
2024-04-18T20:58:22.244Z,60.22
2024-04-18T21:00:50.523Z,60.72
2024-04-18T21:03:20.621Z,60.39
2024-04-18T21:05:48.061Z,59.86
2024-04-18T21:08:20.795Z,60.51
2024-04-18T21:10:48.293Z,59.90
2024-04-18T21:13:18.544Z,60.10
2024-04-18T21:15:46.009Z,60.27
2024-04-18T21:18:16.214Z,60.32
2024-04-18T21:20:43.668Z,60.37
2024-04-18T21:23:13.652Z,60.17
2024-04-18T21:25:43.694Z,60.31
2024-04-18T21:28:13.755Z,59.70
2024-04-18T21:30:41.320Z,60.08
2024-04-18T21:33:11.806Z,59.96
2024-04-18T21:35:39.329Z,60.11
2024-04-18T21:38:09.353Z,59.84
2024-04-18T21:40:36.793Z,60.31
2024-04-18T21:43:09.425Z,59.89
2024-04-18T21:45:36.934Z,59.77
2024-04-18T21:48:10.186Z,59.89
2024-04-18T21:50:38.763Z,60.09
2024-04-18T21:53:08.856Z,59.98
2024-04-18T21:55:36.272Z,59.57
2024-04-18T21:58:09.035Z,60.05
2024-04-18T22:00:36.529Z,60.49
2024-04-18T22:03:07.720Z,60.55
2024-04-18T22:05:35.237Z,60.57
2024-04-18T22:08:05.216Z,60.18
2024-04-18T22:10:32.790Z,60.05
2024-04-18T22:13:02.779Z,59.70
2024-04-18T22:15:35.421Z,60.50
2024-04-18T22:18:02.959Z,60.29
2024-04-18T22:20:33.136Z,59.72
2024-04-18T22:23:15.874Z,59.69
2024-04-18T22:25:46.841Z,60.33
2024-04-18T22:28:14.246Z,60.37
2024-04-18T22:30:47.395Z,59.99
2024-04-18T22:33:14.970Z,60.31
2024-04-18T22:35:45.325Z,60.45
2024-04-18T22:38:12.776Z,59.60
2024-04-18T22:40:43.509Z,60.03
2024-04-18T22:43:11.235Z,59.62
2024-04-18T22:45:42.366Z,59.82
2024-04-18T22:48:12.796Z,60.42
2024-04-18T22:50:48.352Z,60.84
2024-04-18T22:53:16.244Z,60.14
2024-04-18T22:55:46.452Z,60.55
2024-04-18T22:58:14.431Z,60.20
2024-04-18T23:01:04.756Z,60.02
2024-04-18T23:03:35.437Z,59.66
2024-04-18T23:06:18.062Z,59.35
2024-04-18T23:08:45.491Z,59.38
2024-04-18T23:11:18.139Z,60.16
2024-04-18T23:13:45.651Z,59.62
2024-04-18T23:16:15.635Z,60.39
2024-04-18T23:18:45.899Z,59.54
2024-04-18T23:21:16.081Z,59.60
2024-04-18T23:23:44.669Z,59.72
2024-04-18T23:26:14.729Z,59.19
2024-04-18T23:28:42.251Z,59.35
2024-04-18T23:31:12.416Z,59.76
2024-04-18T23:33:39.912Z,59.87
2024-04-18T23:36:12.696Z,59.78
2024-04-18T23:38:40.157Z,60.02
2024-04-18T23:41:10.157Z,60.53
2024-04-18T23:43:37.617Z,60.06
2024-04-18T23:46:07.817Z,60.36
2024-04-18T23:48:35.442Z,60.04
2024-04-18T23:51:05.626Z,60.23
2024-04-18T23:53:36.285Z,60.73
2024-04-18T23:56:06.749Z,59.81
2024-04-18T23:58:34.259Z,59.84
